KPLU

Pierce County - Thun Field Airport

Puyallup, Washington, USA
METAR KPLU 180155Z AUTO 00000KT 10SM CLR 23/13 A3020 RMK AO2
Observed Flight Rules
Aug-18 @ 01:55 UTC (35 minutes ago) Visual Flight Rules
Visibility Clouds
10 miles
  • Clear skies
Temperatures Readings
Current 23°C / 73°F
Dewpoint 13°C / 55°F
Humidity 53%
Altimeter 30.2" Hg
Pressure 1023 hPa
Elevation 164
METAR KPLU 180155Z AUTO 00000KT 10SM CLR 23/13 A3020 RMK AO2
Observed Flight Rules
Aug-18 @ 01:55 UTC
(35 minutes ago)
VFR
Clouds
  • Clear skies
Temperature Dewpoint
23°C / 73°F 13°C / 55°F
Humidity Altimeter Pressure
53% 30.2" Hg 1023 hPa